sensor_id;sensor_type;location;lat;lon;timestamp;pressure;altitude;pressure_sealevel;temperature;humidity
64019;BME280;66942;52.138;5.216;2023-09-18T00:00:09;100652.0;;;28.6;47.19
64019;BME280;66942;52.138;5.216;2023-09-18T00:01:46;100651.0;;;28.61;47.13
64019;BME280;66942;52.138;5.216;2023-09-18T00:03:22;100648.0;;;28.5;47.14
64019;BME280;66942;52.138;5.216;2023-09-18T00:06:34;100639.0;;;28.56;47.42
64019;BME280;66942;52.138;5.216;2023-09-18T00:08:10;100630.0;;;28.63;47.16
64019;BME280;66942;52.138;5.216;2023-09-18T00:09:46;100624.0;;;28.59;47.48
64019;BME280;66942;52.138;5.216;2023-09-18T00:13:00;100617.0;;;28.73;47.02
64019;BME280;66942;52.138;5.216;2023-09-18T00:14:36;100612.0;;;28.42;47.74
64019;BME280;66942;52.138;5.216;2023-09-18T00:16:13;100608.0;;;28.64;47.11
64019;BME280;66942;52.138;5.216;2023-09-18T00:17:49;100599.0;;;28.84;47.02
64019;BME280;66942;52.138;5.216;2023-09-18T00:21:01;100593.0;;;28.99;46.83
64019;BME280;66942;52.138;5.216;2023-09-18T00:22:38;100594.0;;;28.76;47.35
64019;BME280;66942;52.138;5.216;2023-09-18T00:24:14;100589.0;;;28.93;47.09
64019;BME280;66942;52.138;5.216;2023-09-18T00:27:27;100590.0;;;28.94;47.24
64019;BME280;66942;52.138;5.216;2023-09-18T00:29:03;100586.0;;;28.84;47.34
64019;BME280;66942;52.138;5.216;2023-09-18T00:30:46;100584.0;;;28.86;47.48
64019;BME280;66942;52.138;5.216;2023-09-18T00:32:23;100578.0;;;29.06;47.13
64019;BME280;66942;52.138;5.216;2023-09-18T00:35:35;100572.0;;;28.92;47.23
64019;BME280;66942;52.138;5.216;2023-09-18T00:37:11;100562.0;;;28.91;47.2
64019;BME280;66942;52.138;5.216;2023-09-18T00:38:47;100564.0;;;28.88;47.35
64019;BME280;66942;52.138;5.216;2023-09-18T00:42:00;100564.0;;;29.17;46.83
64019;BME280;66942;52.138;5.216;2023-09-18T00:43:36;100563.0;;;28.75;47.5
64019;BME280;66942;52.138;5.216;2023-09-18T00:45:12;100564.0;;;28.74;47.4
64019;BME280;66942;52.138;5.216;2023-09-18T00:48:25;100567.0;;;28.72;47.36
64019;BME280;66942;52.138;5.216;2023-09-18T00:50:02;100555.0;;;28.7;47.1
64019;BME280;66942;52.138;5.216;2023-09-18T00:51:38;100541.0;;;28.62;47.06
64019;BME280;66942;52.138;5.216;2023-09-18T00:53:18;100532.0;;;28.66;47.09
64019;BME280;66942;52.138;5.216;2023-09-18T00:56:35;100528.0;;;28.65;47.01
64019;BME280;66942;52.138;5.216;2023-09-18T00:58:12;100523.0;;;28.64;47.19
64019;BME280;66942;52.138;5.216;2023-09-18T00:59:50;100521.0;;;28.78;46.5
64019;BME280;66942;52.138;5.216;2023-09-18T01:03:03;100517.0;;;28.68;47.0
64019;BME280;66942;52.138;5.216;2023-09-18T01:04:40;100518.0;;;28.85;46.82
64019;BME280;66942;52.138;5.216;2023-09-18T01:06:17;100506.0;;;28.69;47.2
64019;BME280;66942;52.138;5.216;2023-09-18T01:07:53;100499.0;;;28.89;46.66
64019;BME280;66942;52.138;5.216;2023-09-18T01:11:12;100494.0;;;28.87;46.85
64019;BME280;66942;52.138;5.216;2023-09-18T01:13:00;100482.0;;;29.02;46.52
64019;BME280;66942;52.138;5.216;2023-09-18T01:14:50;100477.0;;;28.96;46.53
64019;BME280;66942;52.138;5.216;2023-09-18T01:16:34;100477.0;;;29.04;46.36
64019;BME280;66942;52.138;5.216;2023-09-18T01:19:50;100470.0;;;28.94;46.61
64019;BME280;66942;52.138;5.216;2023-09-18T01:21:26;100464.0;;;28.99;46.33
64019;BME280;66942;52.138;5.216;2023-09-18T01:23:03;100460.0;;;29.07;46.42
64019;BME280;66942;52.138;5.216;2023-09-18T01:24:39;100459.0;;;28.97;46.7
64019;BME280;66942;52.138;5.216;2023-09-18T01:27:52;100457.0;;;28.86;46.81
64019;BME280;66942;52.138;5.216;2023-09-18T01:29:28;100451.0;;;28.79;47.26
64019;BME280;66942;52.138;5.216;2023-09-18T01:31:04;100446.0;;;29.11;46.32
64019;BME280;66942;52.138;5.216;2023-09-18T01:34:21;100442.0;;;29.17;46.25
64019;BME280;66942;52.138;5.216;2023-09-18T01:36:02;100437.0;;;29.17;46.29
64019;BME280;66942;52.138;5.216;2023-09-18T01:37:41;100432.0;;;29.06;46.32
64019;BME280;66942;52.138;5.216;2023-09-18T01:39:20;100434.0;;;29.07;46.39
64019;BME280;66942;52.138;5.216;2023-09-18T01:42:34;100440.0;;;28.79;46.96
64019;BME280;66942;52.138;5.216;2023-09-18T01:44:11;100450.0;;;28.78;47.18
64019;BME280;66942;52.138;5.216;2023-09-18T01:45:47;100446.0;;;28.74;47.15
64019;BME280;66942;52.138;5.216;2023-09-18T01:48:59;100449.0;;;28.68;47.21
64019;BME280;66942;52.138;5.216;2023-09-18T01:50:36;100447.0;;;28.67;47.1
64019;BME280;66942;52.138;5.216;2023-09-18T01:52:13;100444.0;;;28.91;46.66
64019;BME280;66942;52.138;5.216;2023-09-18T01:55:29;100438.0;;;28.65;47.14
64019;BME280;66942;52.138;5.216;2023-09-18T01:57:05;100433.0;;;28.67;46.96
64019;BME280;66942;52.138;5.216;2023-09-18T01:58:42;100430.0;;;28.62;47.11
64019;BME280;66942;52.138;5.216;2023-09-18T02:00:18;100430.0;;;28.86;46.89
64019;BME280;66942;52.138;5.216;2023-09-18T02:03:30;100423.0;;;28.76;47.02
64019;BME280;66942;52.138;5.216;2023-09-18T02:05:07;100425.0;;;28.53;47.17
64019;BME280;66942;52.138;5.216;2023-09-18T02:06:43;100430.0;;;28.5;47.25
64019;BME280;66942;52.138;5.216;2023-09-18T02:09:56;100439.0;;;28.27;47.94
64019;BME280;66942;52.138;5.216;2023-09-18T02:11:32;100439.0;;;28.37;47.43
64019;BME280;66942;52.138;5.216;2023-09-18T02:13:08;100443.0;;;28.39;47.43
64019;BME280;66942;52.138;5.216;2023-09-18T02:16:21;100443.0;;;28.23;47.79
64019;BME280;66942;52.138;5.216;2023-09-18T02:17:57;100450.0;;;28.31;47.59
64019;BME280;66942;52.138;5.216;2023-09-18T02:19:33;100449.0;;;28.33;47.55
64019;BME280;66942;52.138;5.216;2023-09-18T02:21:09;100450.0;;;28.5;47.27
64019;BME280;66942;52.138;5.216;2023-09-18T02:24:22;100447.0;;;28.47;47.39
64019;BME280;66942;52.138;5.216;2023-09-18T02:25:58;100443.0;;;28.25;47.62
64019;BME280;66942;52.138;5.216;2023-09-18T02:27:34;100437.0;;;28.58;47.05
64019;BME280;66942;52.138;5.216;2023-09-18T02:30:46;100430.0;;;28.36;47.58
64019;BME280;66942;52.138;5.216;2023-09-18T02:32:23;100425.0;;;28.58;47.08
64019;BME280;66942;52.138;5.216;2023-09-18T02:33:59;100421.0;;;28.54;47.19
64019;BME280;66942;52.138;5.216;2023-09-18T02:37:11;100410.0;;;28.51;47.58
64019;BME280;66942;52.138;5.216;2023-09-18T02:38:47;100407.0;;;28.48;47.7
64019;BME280;66942;52.138;5.216;2023-09-18T02:40:23;100402.0;;;28.39;47.85
64019;BME280;66942;52.138;5.216;2023-09-18T02:43:36;100398.0;;;28.34;47.98
64019;BME280;66942;52.138;5.216;2023-09-18T02:45:12;100409.0;;;28.37;47.98
64019;BME280;66942;52.138;5.216;2023-09-18T02:46:48;100410.0;;;28.21;48.41
64019;BME280;66942;52.138;5.216;2023-09-18T02:48:24;100405.0;;;28.35;47.85
64019;BME280;66942;52.138;5.216;2023-09-18T02:51:35;100405.0;;;28.21;48.07
64019;BME280;66942;52.138;5.216;2023-09-18T02:53:17;100395.0;;;28.37;47.93
64019;BME280;66942;52.138;5.216;2023-09-18T02:54:53;100388.0;;;28.3;47.89
64019;BME280;66942;52.138;5.216;2023-09-18T02:58:06;100378.0;;;28.5;47.5
64019;BME280;66942;52.138;5.216;2023-09-18T02:59:42;100368.0;;;28.62;47.22
64019;BME280;66942;52.138;5.216;2023-09-18T03:01:18;100356.0;;;28.7;47.06
64019;BME280;66942;52.138;5.216;2023-09-18T03:04:31;100345.0;;;28.68;47.07
64019;BME280;66942;52.138;5.216;2023-09-18T03:06:07;100337.0;;;28.32;47.93
64019;BME280;66942;52.138;5.216;2023-09-18T03:07:43;100319.0;;;28.73;46.88
64019;BME280;66942;52.138;5.216;2023-09-18T03:09:19;100312.0;;;28.78;46.86
64019;BME280;66942;52.138;5.216;2023-09-18T03:12:31;100313.0;;;28.52;47.41
64019;BME280;66942;52.138;5.216;2023-09-18T03:14:08;100306.0;;;28.84;46.78
64019;BME280;66942;52.138;5.216;2023-09-18T03:15:45;100316.0;;;28.46;47.47
64019;BME280;66942;52.138;5.216;2023-09-18T03:18:57;100316.0;;;28.5;47.53
64019;BME280;66942;52.138;5.216;2023-09-18T03:20:33;100315.0;;;28.99;46.39
64019;BME280;66942;52.138;5.216;2023-09-18T03:22:09;100315.0;;;28.4;47.54
64019;BME280;66942;52.138;5.216;2023-09-18T03:25:22;100314.0;;;28.38;47.64
64019;BME280;66942;52.138;5.216;2023-09-18T03:26:58;100311.0;;;28.25;47.87
64019;BME280;66942;52.138;5.216;2023-09-18T03:28:34;100309.0;;;28.45;47.43
64019;BME280;66942;52.138;5.216;2023-09-18T03:30:10;100301.0;;;28.23;47.9
64019;BME280;66942;52.138;5.216;2023-09-18T03:33:23;100299.0;;;28.27;47.9
64019;BME280;66942;52.138;5.216;2023-09-18T03:34:59;100307.0;;;28.39;47.54
64019;BME280;66942;52.138;5.216;2023-09-18T03:36:35;100310.0;;;28.27;47.97
64019;BME280;66942;52.138;5.216;2023-09-18T03:39:47;100310.0;;;28.2;48.13
64019;BME280;66942;52.138;5.216;2023-09-18T03:41:23;100319.0;;;28.26;47.99
64019;BME280;66942;52.138;5.216;2023-09-18T03:43:00;100325.0;;;28.4;47.61
64019;BME280;66942;52.138;5.216;2023-09-18T03:46:13;100323.0;;;28.26;47.9
64019;BME280;66942;52.138;5.216;2023-09-18T03:47:49;100320.0;;;28.44;47.61
64019;BME280;66942;52.138;5.216;2023-09-18T03:49:27;100330.0;;;28.25;47.98
64019;BME280;66942;52.138;5.216;2023-09-18T03:51:04;100323.0;;;28.43;47.87
64019;BME280;66942;52.138;5.216;2023-09-18T03:54:16;100322.0;;;28.53;47.92
64019;BME280;66942;52.138;5.216;2023-09-18T03:55:52;100323.0;;;28.53;47.98
64019;BME280;66942;52.138;5.216;2023-09-18T03:57:29;100320.0;;;28.58;48.01
64019;BME280;66942;52.138;5.216;2023-09-18T04:00:41;100312.0;;;28.71;47.95
64019;BME280;66942;52.138;5.216;2023-09-18T04:02:17;100306.0;;;28.82;47.82
64019;BME280;66942;52.138;5.216;2023-09-18T04:03:53;100305.0;;;28.7;48.03
64019;BME280;66942;52.138;5.216;2023-09-18T04:07:06;100301.0;;;28.85;47.75
64019;BME280;66942;52.138;5.216;2023-09-18T04:08:41;100302.0;;;28.88;47.84
64019;BME280;66942;52.138;5.216;2023-09-18T04:10:18;100298.0;;;29.04;47.51
64019;BME280;66942;52.138;5.216;2023-09-18T04:13:30;100296.0;;;29.09;47.55
64019;BME280;66942;52.138;5.216;2023-09-18T04:15:06;100293.0;;;29.22;47.39
64019;BME280;66942;52.138;5.216;2023-09-18T04:16:42;100295.0;;;29.32;47.29
64019;BME280;66942;52.138;5.216;2023-09-18T04:18:18;100286.0;;;29.55;46.81
64019;BME280;66942;52.138;5.216;2023-09-18T04:21:30;100275.0;;;29.59;46.79
64019;BME280;66942;52.138;5.216;2023-09-18T04:23:23;100268.0;;;29.57;46.84
64019;BME280;66942;52.138;5.216;2023-09-18T04:25:01;100259.0;;;29.49;47.11
64019;BME280;66942;52.138;5.216;2023-09-18T04:26:37;100250.0;;;29.54;46.95
64019;BME280;66942;52.138;5.216;2023-09-18T04:29:49;100246.0;;;29.5;47.16
64019;BME280;66942;52.138;5.216;2023-09-18T04:31:25;100252.0;;;29.38;47.45
64019;BME280;66942;52.138;5.216;2023-09-18T04:33:01;100252.0;;;29.49;47.17
64019;BME280;66942;52.138;5.216;2023-09-18T04:36:13;100255.0;;;29.35;47.58
64019;BME280;66942;52.138;5.216;2023-09-18T04:37:50;100262.0;;;29.49;47.25
64019;BME280;66942;52.138;5.216;2023-09-18T04:39:26;100258.0;;;29.52;47.13
64019;BME280;66942;52.138;5.216;2023-09-18T04:42:38;100241.0;;;29.6;46.89
64019;BME280;66942;52.138;5.216;2023-09-18T04:44:15;100213.0;;;29.74;46.23
64019;BME280;66942;52.138;5.216;2023-09-18T04:45:51;100209.0;;;29.87;45.92
64019;BME280;66942;52.138;5.216;2023-09-18T04:49:03;100205.0;;;29.66;46.41
64019;BME280;66942;52.138;5.216;2023-09-18T04:50:39;100207.0;;;29.53;46.85
64019;BME280;66942;52.138;5.216;2023-09-18T04:52:15;100214.0;;;29.56;46.84
64019;BME280;66942;52.138;5.216;2023-09-18T04:53:52;100219.0;;;29.38;47.23
64019;BME280;66942;52.138;5.216;2023-09-18T04:57:04;100212.0;;;29.27;47.44
64019;BME280;66942;52.138;5.216;2023-09-18T04:58:40;100207.0;;;29.44;47.16
64019;BME280;66942;52.138;5.216;2023-09-18T05:00:16;100209.0;;;29.08;47.83
64019;BME280;66942;52.138;5.216;2023-09-18T05:03:28;100206.0;;;29.25;47.45
64019;BME280;66942;52.138;5.216;2023-09-18T05:05:05;100205.0;;;28.95;48.11
64019;BME280;66942;52.138;5.216;2023-09-18T05:06:41;100206.0;;;28.95;48.09
64019;BME280;66942;52.138;5.216;2023-09-18T05:09:54;100210.0;;;28.93;48.15
64019;BME280;66942;52.138;5.216;2023-09-18T05:11:30;100213.0;;;29.09;47.74
64019;BME280;66942;52.138;5.216;2023-09-18T05:13:06;100212.0;;;28.92;48.1
64019;BME280;66942;52.138;5.216;2023-09-18T05:16:19;100224.0;;;28.99;48.07
64019;BME280;66942;52.138;5.216;2023-09-18T05:17:56;100231.0;;;29.18;47.69
64019;BME280;66942;52.138;5.216;2023-09-18T05:19:32;100240.0;;;29.05;48.01
64019;BME280;66942;52.138;5.216;2023-09-18T05:21:10;100242.0;;;29.12;47.83
64019;BME280;66942;52.138;5.216;2023-09-18T05:24:22;100249.0;;;29.25;47.59
64019;BME280;66942;52.138;5.216;2023-09-18T05:25:57;100249.0;;;29.24;47.72
64019;BME280;66942;52.138;5.216;2023-09-18T05:27:33;100251.0;;;29.24;47.72
64019;BME280;66942;52.138;5.216;2023-09-18T05:30:45;100249.0;;;29.13;47.93
64019;BME280;66942;52.138;5.216;2023-09-18T05:32:21;100251.0;;;29.28;47.62
64019;BME280;66942;52.138;5.216;2023-09-18T05:33:58;100248.0;;;29.29;47.43
64019;BME280;66942;52.138;5.216;2023-09-18T05:37:13;100250.0;;;29.02;48.15
64019;BME280;66942;52.138;5.216;2023-09-18T05:38:48;100256.0;;;29.07;47.9
64019;BME280;66942;52.138;5.216;2023-09-18T05:40:25;100262.0;;;29.31;47.4
64019;BME280;66942;52.138;5.216;2023-09-18T05:42:02;100264.0;;;29.38;47.21
64019;BME280;66942;52.138;5.216;2023-09-18T05:45:15;100268.0;;;29.28;47.33
64019;BME280;66942;52.138;5.216;2023-09-18T05:46:51;100272.0;;;29.14;47.77
64019;BME280;66942;52.138;5.216;2023-09-18T05:48:27;100275.0;;;29.09;47.89
64019;BME280;66942;52.138;5.216;2023-09-18T05:51:40;100271.0;;;29.19;47.56
64019;BME280;66942;52.138;5.216;2023-09-18T05:53:16;100267.0;;;29.31;47.36
64019;BME280;66942;52.138;5.216;2023-09-18T05:54:52;100259.0;;;29.19;47.64
64019;BME280;66942;52.138;5.216;2023-09-18T05:58:04;100257.0;;;29.02;48.03
64019;BME280;66942;52.138;5.216;2023-09-18T05:59:40;100253.0;;;29.1;47.71
64019;BME280;66942;52.138;5.216;2023-09-18T06:01:16;100243.0;;;28.91;48.19
64019;BME280;66942;52.138;5.216;2023-09-18T06:02:52;100242.0;;;29.05;47.94
64019;BME280;66942;52.138;5.216;2023-09-18T06:06:05;100249.0;;;28.95;47.97
64019;BME280;66942;52.138;5.216;2023-09-18T06:07:41;100249.0;;;29.03;47.72
64019;BME280;66942;52.138;5.216;2023-09-18T06:09:17;100243.0;;;29.01;47.94
64019;BME280;66942;52.138;5.216;2023-09-18T06:12:30;100241.0;;;29.09;47.81
64019;BME280;66942;52.138;5.216;2023-09-18T06:14:06;100256.0;;;29.28;47.5
64019;BME280;66942;52.138;5.216;2023-09-18T06:15:42;100262.0;;;29.35;47.38
64019;BME280;66942;52.138;5.216;2023-09-18T06:18:54;100264.0;;;29.3;47.48
64019;BME280;66942;52.138;5.216;2023-09-18T06:20:30;100267.0;;;29.47;47.33
64019;BME280;66942;52.138;5.216;2023-09-18T06:22:06;100268.0;;;29.36;47.72
64019;BME280;66942;52.138;5.216;2023-09-18T06:25:19;100271.0;;;29.36;47.72
64019;BME280;66942;52.138;5.216;2023-09-18T06:26:54;100266.0;;;29.48;47.49
64019;BME280;66942;52.138;5.216;2023-09-18T06:28:31;100262.0;;;29.47;47.44
64019;BME280;66942;52.138;5.216;2023-09-18T06:30:07;100267.0;;;29.45;47.58
64019;BME280;66942;52.138;5.216;2023-09-18T06:33:21;100263.0;;;29.41;47.71
64019;BME280;66942;52.138;5.216;2023-09-18T06:34:57;100258.0;;;29.46;47.6
64019;BME280;66942;52.138;5.216;2023-09-18T06:36:33;100263.0;;;29.26;48.07
64019;BME280;66942;52.138;5.216;2023-09-18T06:39:45;100263.0;;;29.48;47.61
64019;BME280;66942;52.138;5.216;2023-09-18T06:41:21;100259.0;;;29.52;47.48
64019;BME280;66942;52.138;5.216;2023-09-18T06:42:58;100261.0;;;29.25;48.13
64019;BME280;66942;52.138;5.216;2023-09-18T06:46:11;100252.0;;;29.3;48.01
64019;BME280;66942;52.138;5.216;2023-09-18T06:47:47;100244.0;;;29.36;47.8
64019;BME280;66942;52.138;5.216;2023-09-18T06:49:23;100249.0;;;29.35;47.85
64019;BME280;66942;52.138;5.216;2023-09-18T06:50:59;100245.0;;;29.28;48.15
64019;BME280;66942;52.138;5.216;2023-09-18T06:54:11;100251.0;;;29.47;47.66
64019;BME280;66942;52.138;5.216;2023-09-18T06:55:47;100255.0;;;29.51;47.57
64019;BME280;66942;52.138;5.216;2023-09-18T06:57:24;100260.0;;;29.49;47.7
64019;BME280;66942;52.138;5.216;2023-09-18T07:00:36;100267.0;;;29.48;47.75
64019;BME280;66942;52.138;5.216;2023-09-18T07:02:12;100270.0;;;29.6;47.54
64019;BME280;66942;52.138;5.216;2023-09-18T07:03:48;100267.0;;;29.63;47.51
64019;BME280;66942;52.138;5.216;2023-09-18T07:07:00;100268.0;;;29.56;47.58
64019;BME280;66942;52.138;5.216;2023-09-18T07:08:36;100270.0;;;29.61;47.64
64019;BME280;66942;52.138;5.216;2023-09-18T07:10:12;100266.0;;;29.57;47.6
64019;BME280;66942;52.138;5.216;2023-09-18T07:13:24;100271.0;;;29.64;47.53
64019;BME280;66942;52.138;5.216;2023-09-18T07:15:01;100271.0;;;29.77;47.28
64019;BME280;66942;52.138;5.216;2023-09-18T07:16:38;100270.0;;;29.68;47.41
64019;BME280;66942;52.138;5.216;2023-09-18T07:18:14;100267.0;;;29.56;47.79
64019;BME280;66942;52.138;5.216;2023-09-18T07:21:26;100267.0;;;29.8;47.32
64019;BME280;66942;52.138;5.216;2023-09-18T07:23:02;100266.0;;;29.87;47.02
64019;BME280;66942;52.138;5.216;2023-09-18T07:24:38;100268.0;;;29.9;46.91
64019;BME280;66942;52.138;5.216;2023-09-18T07:27:50;100266.0;;;29.97;46.81
64019;BME280;66942;52.138;5.216;2023-09-18T07:29:26;100259.0;;;29.75;47.16
64019;BME280;66942;52.138;5.216;2023-09-18T07:31:05;100258.0;;;29.77;47.02
64019;BME280;66942;52.138;5.216;2023-09-18T07:34:17;100259.0;;;29.99;46.71
64019;BME280;66942;52.138;5.216;2023-09-18T07:35:53;100251.0;;;29.97;46.67
64019;BME280;66942;52.138;5.216;2023-09-18T07:37:29;100242.0;;;30.0;46.87
64019;BME280;66942;52.138;5.216;2023-09-18T07:39:05;100236.0;;;29.83;47.06
64019;BME280;66942;52.138;5.216;2023-09-18T07:42:17;100241.0;;;29.97;46.49
64019;BME280;66942;52.138;5.216;2023-09-18T07:43:53;100241.0;;;29.92;46.8
64019;BME280;66942;52.138;5.216;2023-09-18T07:45:29;100250.0;;;30.08;46.54
64019;BME280;66942;52.138;5.216;2023-09-18T07:48:42;100253.0;;;30.03;46.3
64019;BME280;66942;52.138;5.216;2023-09-18T07:50:18;100250.0;;;30.01;46.56
64019;BME280;66942;52.138;5.216;2023-09-18T07:51:54;100255.0;;;30.05;46.59
64019;BME280;66942;52.138;5.216;2023-09-18T07:55:07;100260.0;;;30.14;46.33
64019;BME280;66942;52.138;5.216;2023-09-18T07:56:43;100265.0;;;30.24;46.18
64019;BME280;66942;52.138;5.216;2023-09-18T07:58:19;100272.0;;;30.25;46.06
64019;BME280;66942;52.138;5.216;2023-09-18T08:01:32;100283.0;;;30.24;45.77
64019;BME280;66942;52.138;5.216;2023-09-18T08:03:08;100276.0;;;30.02;46.09
64019;BME280;66942;52.138;5.216;2023-09-18T08:04:44;100275.0;;;30.13;45.82
64019;BME280;66942;52.138;5.216;2023-09-18T08:06:20;100276.0;;;29.86;46.42
64019;BME280;66942;52.138;5.216;2023-09-18T08:09:32;100282.0;;;30.34;45.34
64019;BME280;66942;52.138;5.216;2023-09-18T08:11:08;100290.0;;;30.3;45.46
64019;BME280;66942;52.138;5.216;2023-09-18T08:12:44;100289.0;;;30.37;45.56
64019;BME280;66942;52.138;5.216;2023-09-18T08:15:56;100290.0;;;30.47;44.85
64019;BME280;66942;52.138;5.216;2023-09-18T08:17:32;100291.0;;;30.5;44.97
64019;BME280;66942;52.138;5.216;2023-09-18T08:19:09;100287.0;;;30.56;45.14
64019;BME280;66942;52.138;5.216;2023-09-18T08:22:21;100284.0;;;30.34;45.44
64019;BME280;66942;52.138;5.216;2023-09-18T08:23:57;100286.0;;;30.43;45.68
64019;BME280;66942;52.138;5.216;2023-09-18T08:25:33;100286.0;;;30.54;45.19
64019;BME280;66942;52.138;5.216;2023-09-18T08:28:45;100288.0;;;30.46;45.5
64019;BME280;66942;52.138;5.216;2023-09-18T08:30:21;100296.0;;;30.46;45.27
64019;BME280;66942;52.138;5.216;2023-09-18T08:31:57;100299.0;;;30.42;45.14
64019;BME280;66942;52.138;5.216;2023-09-18T08:33:34;100297.0;;;30.46;45.0
64019;BME280;66942;52.138;5.216;2023-09-18T08:36:46;100299.0;;;30.57;44.75
64019;BME280;66942;52.138;5.216;2023-09-18T08:38:22;100300.0;;;30.6;44.91
64019;BME280;66942;52.138;5.216;2023-09-18T08:39:58;100305.0;;;29.95;45.5
64019;BME280;66942;52.138;5.216;2023-09-18T08:43:18;100308.0;;;30.45;45.08
64019;BME280;66942;52.138;5.216;2023-09-18T08:44:56;100305.0;;;30.9;44.56
64019;BME280;66942;52.138;5.216;2023-09-18T08:46:34;100307.0;;;30.98;44.98
64019;BME280;66942;52.138;5.216;2023-09-18T08:48:11;100305.0;;;30.94;44.03
64019;BME280;66942;52.138;5.216;2023-09-18T08:51:26;100305.0;;;31.1;44.53
64019;BME280;66942;52.138;5.216;2023-09-18T08:53:03;100308.0;;;31.13;44.67
64019;BME280;66942;52.138;5.216;2023-09-18T08:54:39;100316.0;;;31.37;44.15
64019;BME280;66942;52.138;5.216;2023-09-18T08:57:55;100312.0;;;31.39;44.02
64019;BME280;66942;52.138;5.216;2023-09-18T08:59:34;100314.0;;;31.26;43.63
64019;BME280;66942;52.138;5.216;2023-09-18T09:01:11;100315.0;;;31.26;44.06
64019;BME280;66942;52.138;5.216;2023-09-18T09:02:47;100315.0;;;31.53;43.04
64019;BME280;66942;52.138;5.216;2023-09-18T09:06:00;100322.0;;;31.53;42.96
64019;BME280;66942;52.138;5.216;2023-09-18T09:07:37;100322.0;;;31.57;43.43
64019;BME280;66942;52.138;5.216;2023-09-18T09:09:13;100330.0;;;30.76;44.18
64019;BME280;66942;52.138;5.216;2023-09-18T09:12:58;100333.0;;;31.54;42.44
64019;BME280;66942;52.138;5.216;2023-09-18T09:14:34;100336.0;;;31.42;42.73
64019;BME280;66942;52.138;5.216;2023-09-18T09:16:11;100338.0;;;31.42;42.09
64019;BME280;66942;52.138;5.216;2023-09-18T09:17:47;100340.0;;;31.34;42.69
64019;BME280;66942;52.138;5.216;2023-09-18T09:21:06;100338.0;;;31.46;42.51
64019;BME280;66942;52.138;5.216;2023-09-18T09:22:42;100339.0;;;31.54;42.44
64019;BME280;66942;52.138;5.216;2023-09-18T09:24:35;100340.0;;;31.63;41.77
64019;BME280;66942;52.138;5.216;2023-09-18T09:26:13;100340.0;;;31.65;42.27
64019;BME280;66942;52.138;5.216;2023-09-18T09:29:26;100340.0;;;31.17;42.15
64019;BME280;66942;52.138;5.216;2023-09-18T09:31:03;100350.0;;;31.44;41.8
64019;BME280;66942;52.138;5.216;2023-09-18T09:32:39;100344.0;;;31.53;42.1
64019;BME280;66942;52.138;5.216;2023-09-18T09:34:24;100344.0;;;31.14;42.08
64019;BME280;66942;52.138;5.216;2023-09-18T09:37:41;100343.0;;;31.29;42.12
64019;BME280;66942;52.138;5.216;2023-09-18T09:39:17;100352.0;;;31.48;42.18
64019;BME280;66942;52.138;5.216;2023-09-18T09:40:53;100351.0;;;31.32;41.93
64019;BME280;66942;52.138;5.216;2023-09-18T09:44:14;100357.0;;;31.44;41.41
64019;BME280;66942;52.138;5.216;2023-09-18T09:45:56;100357.0;;;31.33;41.83
64019;BME280;66942;52.138;5.216;2023-09-18T09:47:34;100364.0;;;31.04;41.73
64019;BME280;66942;52.138;5.216;2023-09-18T09:49:10;100368.0;;;30.8;41.55
64019;BME280;66942;52.138;5.216;2023-09-18T09:52:24;100373.0;;;31.07;41.84
64019;BME280;66942;52.138;5.216;2023-09-18T09:54:00;100370.0;;;30.48;42.66
64019;BME280;66942;52.138;5.216;2023-09-18T09:55:36;100380.0;;;30.96;41.33
64019;BME280;66942;52.138;5.216;2023-09-18T09:57:12;100388.0;;;31.04;41.74
64019;BME280;66942;52.138;5.216;2023-09-18T10:00:43;100381.0;;;30.87;41.54
64019;BME280;66942;52.138;5.216;2023-09-18T10:02:21;100375.0;;;30.84;42.33
64019;BME280;66942;52.138;5.216;2023-09-18T10:03:58;100383.0;;;30.65;42.54
64019;BME280;66942;52.138;5.216;2023-09-18T10:05:36;100373.0;;;30.71;42.09
64019;BME280;66942;52.138;5.216;2023-09-18T10:08:49;100382.0;;;30.78;42.27
64019;BME280;66942;52.138;5.216;2023-09-18T10:10:29;100374.0;;;30.94;42.03
64019;BME280;66942;52.138;5.216;2023-09-18T10:12:10;100369.0;;;30.95;41.79
64019;BME280;66942;52.138;5.216;2023-09-18T10:15:33;100371.0;;;30.98;42.64
64019;BME280;66942;52.138;5.216;2023-09-18T10:17:15;100380.0;;;31.1;41.9
64019;BME280;66942;52.138;5.216;2023-09-18T10:18:56;100371.0;;;30.94;41.93
64019;BME280;66942;52.138;5.216;2023-09-18T10:20:41;100377.0;;;31.11;43.13
64019;BME280;66942;52.138;5.216;2023-09-18T10:22:21;100375.0;;;31.35;42.54
64019;BME280;66942;52.138;5.216;2023-09-18T10:25:53;100366.0;;;31.34;42.04
64019;BME280;66942;52.138;5.216;2023-09-18T10:27:31;100382.0;;;31.73;41.49
64019;BME280;66942;52.138;5.216;2023-09-18T10:29:08;100378.0;;;31.44;40.92
64019;BME280;66942;52.138;5.216;2023-09-18T10:30:46;100375.0;;;31.76;40.87
64019;BME280;66942;52.138;5.216;2023-09-18T10:34:02;100380.0;;;31.8;40.67
64019;BME280;66942;52.138;5.216;2023-09-18T10:35:41;100378.0;;;31.96;40.44
64019;BME280;66942;52.138;5.216;2023-09-18T10:37:18;100380.0;;;31.66;40.12
64019;BME280;66942;52.138;5.216;2023-09-18T10:40:32;100380.0;;;31.68;39.72
64019;BME280;66942;52.138;5.216;2023-09-18T10:42:12;100380.0;;;31.76;39.49
64019;BME280;66942;52.138;5.216;2023-09-18T10:43:53;100378.0;;;31.48;39.79
64019;BME280;66942;52.138;5.216;2023-09-18T10:45:31;100388.0;;;31.49;39.81
64019;BME280;66942;52.138;5.216;2023-09-18T10:48:48;100384.0;;;30.49;40.74
64019;BME280;66942;52.138;5.216;2023-09-18T10:50:26;100385.0;;;31.11;40.75
64019;BME280;66942;52.138;5.216;2023-09-18T10:52:03;100384.0;;;30.81;41.12
64019;BME280;66942;52.138;5.216;2023-09-18T10:53:39;100384.0;;;30.85;39.97
64019;BME280;66942;52.138;5.216;2023-09-18T10:56:52;100384.0;;;31.16;40.46
64019;BME280;66942;52.138;5.216;2023-09-18T10:58:29;100374.0;;;31.4;40.15
64019;BME280;66942;52.138;5.216;2023-09-18T11:00:08;100373.0;;;31.29;39.85
64019;BME280;66942;52.138;5.216;2023-09-18T11:03:23;100373.0;;;31.39;39.74
64019;BME280;66942;52.138;5.216;2023-09-18T11:04:59;100376.0;;;31.96;39.49